createdAt,value
2019-04-01T00:00:14.214Z,9.97
2019-04-01T00:02:43.171Z,10.00
2019-04-01T00:05:12.474Z,9.30
2019-04-01T00:07:42.952Z,9.73
2019-04-01T00:10:11.995Z,8.83
2019-04-01T00:12:41.264Z,9.23
2019-04-01T00:15:10.326Z,8.77
2019-04-01T00:17:39.216Z,9.23
2019-04-01T00:20:08.873Z,9.37
2019-04-01T00:22:37.881Z,9.63
2019-04-01T00:25:07.034Z,9.47
2019-04-01T00:27:36.022Z,9.10
2019-04-01T00:30:05.432Z,9.53
2019-04-01T00:32:34.659Z,9.43
2019-04-01T00:35:04.009Z,8.77
2019-04-01T00:37:33.049Z,9.93
2019-04-01T00:40:02.133Z,9.60
2019-04-01T00:42:33.005Z,9.63
2019-04-01T00:45:02.335Z,9.80
2019-04-01T00:47:34.098Z,9.47
2019-04-01T00:50:06.099Z,8.90
2019-04-01T00:52:35.556Z,9.67
2019-04-01T00:55:04.573Z,8.80
2019-04-01T00:57:33.662Z,9.27
2019-04-01T01:00:02.852Z,9.33
2019-04-01T01:02:32.394Z,9.30
2019-04-01T01:05:03.944Z,8.67
2019-04-01T01:07:32.909Z,8.70
2019-04-01T01:10:01.891Z,9.37
2019-04-01T01:12:30.824Z,10.00
2019-04-01T01:14:59.758Z,9.90
2019-04-01T01:17:28.741Z,8.80
2019-04-01T01:19:57.650Z,9.07
2019-04-01T01:22:26.633Z,8.10
2019-04-01T01:24:55.663Z,8.57
2019-04-01T01:27:24.739Z,9.30
2019-04-01T01:29:53.827Z,8.50
2019-04-01T01:32:22.780Z,8.87
2019-04-01T01:34:51.833Z,8.37
2019-04-01T01:37:23.478Z,8.57
2019-04-01T01:39:52.631Z,8.23
2019-04-01T01:42:23.776Z,8.53
2019-04-01T01:44:52.791Z,8.77
2019-04-01T01:47:21.715Z,8.77
2019-04-01T01:49:50.806Z,8.33
2019-04-01T01:52:19.986Z,8.20
2019-04-01T01:54:49.507Z,8.07
2019-04-01T01:57:20.565Z,8.77
2019-04-01T01:59:51.036Z,8.97
2019-04-01T02:02:20.370Z,9.13
2019-04-01T02:04:49.357Z,7.87
2019-04-01T02:07:18.356Z,7.87
2019-04-01T02:09:47.653Z,8.33
2019-04-01T02:12:16.852Z,8.13
2019-04-01T02:14:45.820Z,8.23
2019-04-01T02:17:15.137Z,8.50
2019-04-01T02:19:44.063Z,8.07
2019-04-01T02:22:13.025Z,8.23
2019-04-01T02:24:42.148Z,9.13
2019-04-01T02:27:11.109Z,8.08
2019-04-01T02:29:40.204Z,8.40
2019-04-01T02:32:09.161Z,8.43
2019-04-01T02:34:38.171Z,7.35
2019-04-01T02:37:07.181Z,8.10
2019-04-01T02:39:36.160Z,8.10
2019-04-01T02:42:05.303Z,8.33
2019-04-01T02:44:35.569Z,7.35
2019-04-01T02:47:04.584Z,7.80
2019-04-01T02:49:33.553Z,7.63
2019-04-01T02:52:02.477Z,8.37
2019-04-01T02:54:34.280Z,8.27
2019-04-01T02:57:03.248Z,8.03
2019-04-01T02:59:32.727Z,8.38
2019-04-01T03:02:01.722Z,8.43
2019-04-01T03:04:32.916Z,7.62
2019-04-01T03:07:02.188Z,8.40
2019-04-01T03:09:31.495Z,8.58
2019-04-01T03:12:00.497Z,7.80
2019-04-01T03:14:29.482Z,7.80
2019-04-01T03:16:58.517Z,7.90
2019-04-01T03:19:27.481Z,8.60
2019-04-01T03:21:57.990Z,8.68
2019-04-01T03:24:27.036Z,7.65
2019-04-01T03:26:55.987Z,7.67
2019-04-01T03:29:24.936Z,7.62
2019-04-01T03:31:53.880Z,7.93
2019-04-01T03:34:22.819Z,7.40
2019-04-01T03:36:51.810Z,7.85
2019-04-01T03:39:20.809Z,7.55
2019-04-01T03:41:50.021Z,7.03
2019-04-01T03:44:19.005Z,7.85
2019-04-01T03:46:50.980Z,8.00
2019-04-01T03:49:19.955Z,8.30
2019-04-01T03:51:49.453Z,7.80
2019-04-01T03:54:18.529Z,8.08
2019-04-01T03:56:47.582Z,7.42
2019-04-01T03:59:18.179Z,7.08
2019-04-01T04:01:47.205Z,7.90
2019-04-01T04:04:16.265Z,7.70
2019-04-01T04:06:45.545Z,7.15
2019-04-01T04:09:14.659Z,7.28
2019-04-01T04:11:43.603Z,7.25
2019-04-01T04:14:12.961Z,7.42
2019-04-01T04:16:41.955Z,8.38
2019-04-01T04:19:11.053Z,7.67
2019-04-01T04:21:40.318Z,7.87
2019-04-01T04:24:09.234Z,7.35
2019-04-01T04:26:38.257Z,8.28
2019-04-01T04:29:07.584Z,6.92
2019-04-01T04:31:36.761Z,7.30
2019-04-01T04:34:05.902Z,7.00
2019-04-01T04:36:35.138Z,7.30
2019-04-01T04:39:05.836Z,7.00
2019-04-01T04:41:34.772Z,7.03
2019-04-01T04:44:04.237Z,7.05
2019-04-01T04:46:33.169Z,7.45
2019-04-01T04:49:02.053Z,6.78
2019-04-01T04:51:33.831Z,6.90
2019-04-01T04:54:02.989Z,8.20
2019-04-01T04:56:32.289Z,7.87
2019-04-01T04:59:01.856Z,8.20
2019-04-01T05:01:32.096Z,8.73
2019-04-01T05:04:01.010Z,8.85
2019-04-01T05:06:30.566Z,8.78
2019-04-01T05:08:59.804Z,9.10
2019-04-01T05:11:39.368Z,8.63
2019-04-01T05:14:09.700Z,8.75
2019-04-01T05:16:40.983Z,8.23
2019-04-01T05:19:13.743Z,7.90
2019-04-01T05:21:48.830Z,7.40
2019-04-01T05:24:18.389Z,7.67
2019-04-01T05:26:49.242Z,7.25
2019-04-01T05:29:21.079Z,8.13
2019-04-01T05:34:46.180Z,6.65
2019-04-01T05:37:18.049Z,7.10
2019-04-01T05:39:50.383Z,8.98
2019-04-01T05:42:19.791Z,7.92
2019-04-01T05:44:49.446Z,8.58
2019-04-01T05:47:22.201Z,7.53
2019-04-01T05:49:51.561Z,8.00
2019-04-01T05:52:26.884Z,7.40
2019-04-01T05:54:56.124Z,9.48
2019-04-01T05:57:25.479Z,7.80
2019-04-01T05:59:55.664Z,7.85
2019-04-01T06:02:27.441Z,8.20
2019-04-01T06:04:56.779Z,8.43
2019-04-01T06:07:26.485Z,7.08
2019-04-01T06:10:00.723Z,8.10
2019-04-01T06:12:30.316Z,6.67
2019-04-01T06:14:59.898Z,7.58
2019-04-01T06:17:29.310Z,8.57
2019-04-01T06:19:58.434Z,9.78
2019-04-01T06:22:28.109Z,8.20
2019-04-01T06:24:57.577Z,8.93
2019-04-01T06:27:26.847Z,7.97
2019-04-01T06:29:59.952Z,7.83
2019-04-01T06:32:29.529Z,7.67
2019-04-01T06:34:58.821Z,7.93
2019-04-01T06:37:28.437Z,7.58
2019-04-01T06:39:57.914Z,7.87
2019-04-01T06:42:28.450Z,7.10
2019-04-01T06:44:58.087Z,7.70
2019-04-01T06:47:27.378Z,7.20
2019-04-01T06:50:05.915Z,8.48
2019-04-01T06:52:36.566Z,6.80
2019-04-01T06:55:06.723Z,7.03
2019-04-01T06:57:35.926Z,8.13
2019-04-01T07:00:06.759Z,7.43
2019-04-01T07:02:36.928Z,6.83
2019-04-01T07:05:12.587Z,6.90
2019-04-01T07:07:41.327Z,6.83
2019-04-01T07:10:24.694Z,7.57
2019-04-01T07:12:54.903Z,7.73
2019-04-01T07:15:24.185Z,7.30
2019-04-01T07:18:00.307Z,7.63
2019-04-01T07:20:29.841Z,7.90
2019-04-01T07:23:00.820Z,8.33
2019-04-01T07:25:33.833Z,9.03
2019-04-01T07:28:00.855Z,11.07
2019-04-01T07:30:31.983Z,8.97
2019-04-01T07:33:04.774Z,10.43
2019-04-01T07:35:34.219Z,10.10
2019-04-01T07:38:04.011Z,10.30
2019-04-01T07:40:35.902Z,8.03
2019-04-01T07:43:07.513Z,10.10
2019-04-01T07:45:40.612Z,9.58
2019-04-01T07:48:12.541Z,9.48
2019-04-01T07:50:47.241Z,8.87
2019-04-01T07:53:21.900Z,7.43
2019-04-01T07:55:54.206Z,7.77
2019-04-01T07:58:25.297Z,8.13
2019-04-01T08:01:04.275Z,7.30
2019-04-01T08:03:34.254Z,7.20
2019-04-01T08:06:05.714Z,8.20
2019-04-01T08:08:40.700Z,7.43
2019-04-01T08:11:14.714Z,8.27
2019-04-01T08:13:51.252Z,7.77
2019-04-01T08:16:31.944Z,7.60
2019-04-01T08:19:03.030Z,8.07
2019-04-01T08:21:40.391Z,8.27
2019-04-01T08:24:10.105Z,8.13
2019-04-01T08:26:56.148Z,8.47
2019-04-01T08:29:30.335Z,8.57
2019-04-01T08:31:57.474Z,7.90
2019-04-01T08:34:27.574Z,7.63
2019-04-01T08:36:57.728Z,7.70
2019-04-01T08:39:26.960Z,8.53
2019-04-01T08:41:58.175Z,8.60
2019-04-01T08:44:31.884Z,9.00
2019-04-01T08:47:23.242Z,8.23
2019-04-01T08:49:53.102Z,8.93
2019-04-01T08:52:25.283Z,8.40
2019-04-01T08:54:54.440Z,9.13
2019-04-01T08:57:30.029Z,10.20
2019-04-01T09:00:00.331Z,8.53
2019-04-01T09:02:37.152Z,9.10
2019-04-01T09:05:09.133Z,8.73
2019-04-01T09:07:41.015Z,7.77
2019-04-01T09:10:11.627Z,8.53
2019-04-01T09:12:41.490Z,8.43
2019-04-01T09:15:12.993Z,8.47
2019-04-01T09:17:45.472Z,8.67
2019-04-01T09:20:16.311Z,8.20
2019-04-01T09:22:47.368Z,8.60
2019-04-01T09:28:24.692Z,9.33
2019-04-01T09:31:00.770Z,8.67
2019-04-01T09:35:01.065Z,8.83
2019-04-01T09:36:38.491Z,9.57
2019-04-01T09:39:12.398Z,9.40
2019-04-01T09:41:54.199Z,9.30
2019-04-01T09:44:44.724Z,9.70
2019-04-01T09:47:09.793Z,12.05
2019-04-01T09:49:41.222Z,9.63
2019-04-01T09:52:13.921Z,10.20
2019-04-01T09:54:48.438Z,9.50
2019-04-01T09:57:28.680Z,9.93
2019-04-01T10:00:00.533Z,9.93
2019-04-01T10:02:33.600Z,10.13
2019-04-01T10:05:06.593Z,9.77
2019-04-01T10:07:40.804Z,10.47
2019-04-01T10:10:13.799Z,10.67
2019-04-01T10:12:45.228Z,9.83
2019-04-01T10:15:18.582Z,10.17
2019-04-01T10:17:52.657Z,11.20
2019-04-01T10:20:22.556Z,9.87
2019-04-01T10:22:54.074Z,10.10
2019-04-01T10:25:23.586Z,10.57
2019-04-01T10:27:54.866Z,10.23
2019-04-01T10:30:24.276Z,10.93
2019-04-01T10:32:55.762Z,10.90
2019-04-01T10:35:25.898Z,11.90
2019-04-01T10:37:59.476Z,11.13
2019-04-01T10:40:49.316Z,11.70
2019-04-01T10:43:06.445Z,11.03
2019-04-01T10:45:41.265Z,11.10
2019-04-01T10:48:14.017Z,11.97
2019-04-01T10:50:50.266Z,9.80
2019-04-01T10:53:21.025Z,10.40
2019-04-01T10:55:52.445Z,10.70
2019-04-01T10:58:29.283Z,12.33
2019-04-01T11:01:01.889Z,11.55
2019-04-01T11:03:33.381Z,11.10
2019-04-01T11:06:04.650Z,11.07
2019-04-01T11:08:35.853Z,10.87
2019-04-01T11:11:13.024Z,11.87
2019-04-01T11:13:43.302Z,10.40
2019-04-01T11:16:18.320Z,10.77
2019-04-01T11:18:49.575Z,10.30
2019-04-01T11:21:20.525Z,11.37
2019-04-01T11:23:57.314Z,10.97
2019-04-01T11:26:36.245Z,11.53
2019-04-01T11:29:04.978Z,11.07
2019-04-01T11:31:34.971Z,11.30
2019-04-01T11:34:06.817Z,12.40
2019-04-01T11:36:36.117Z,11.77
2019-04-01T11:39:07.286Z,11.53
2019-04-01T11:41:45.251Z,11.60
2019-04-01T11:44:18.494Z,12.30
2019-04-01T11:46:54.685Z,12.27
2019-04-01T11:49:28.369Z,12.43
2019-04-01T11:52:01.305Z,13.65
2019-04-01T11:54:31.272Z,13.20
2019-04-01T11:57:09.446Z,11.93
2019-04-01T11:59:39.752Z,12.43
2019-04-01T12:02:12.237Z,11.77
2019-04-01T12:04:54.894Z,10.80
2019-04-01T12:07:24.138Z,13.80
2019-04-01T12:09:57.956Z,11.00
2019-04-01T12:12:29.850Z,10.07
2019-04-01T12:15:02.560Z,12.33
2019-04-01T12:17:46.180Z,11.37
2019-04-01T12:20:25.689Z,10.20
2019-04-01T12:22:59.469Z,11.33
2019-04-01T12:25:33.623Z,10.43
2019-04-01T12:28:03.001Z,8.80
2019-04-01T12:30:32.392Z,9.93
2019-04-01T12:46:49.091Z,10.30
2019-04-01T12:49:26.803Z,11.30
2019-04-01T12:52:19.874Z,12.40
2019-04-01T12:54:55.939Z,12.13
2019-04-01T12:58:17.728Z,11.20
2019-04-01T13:01:08.824Z,10.57
2019-04-01T13:03:38.600Z,10.67
2019-04-01T13:06:13.781Z,10.00
2019-04-01T13:09:22.260Z,10.07
2019-04-01T13:11:59.638Z,10.30
2019-04-01T13:14:51.035Z,12.60
2019-04-01T13:17:22.080Z,11.07
2019-04-01T13:20:37.987Z,11.33
2019-04-01T13:23:14.674Z,10.37
2019-04-01T13:26:26.502Z,9.80
2019-04-01T13:29:01.376Z,11.28
2019-04-01T13:32:00.424Z,11.27
2019-04-01T13:34:46.192Z,10.17
2019-04-01T13:37:51.935Z,8.97
2019-04-01T13:40:23.883Z,12.00
2019-04-01T13:43:31.510Z,10.40
2019-04-01T13:46:06.097Z,10.37
2019-04-01T13:49:25.461Z,10.67
2019-04-01T13:52:03.808Z,11.47
2019-04-01T13:55:06.199Z,10.73
2019-04-01T13:57:39.942Z,9.60
2019-04-01T14:07:14.329Z,9.83
2019-04-01T14:09:45.672Z,12.85
2019-04-01T14:22:39.702Z,11.47
2019-04-01T14:25:44.736Z,11.93
2019-04-01T14:28:22.020Z,10.47
2019-04-01T14:54:20.688Z,11.67
2019-04-01T14:56:50.898Z,11.57
2019-04-01T14:59:58.179Z,10.73
2019-04-01T15:02:27.788Z,10.57
2019-04-01T15:05:39.720Z,10.57
2019-04-01T15:08:15.528Z,10.23
2019-04-01T15:11:29.901Z,11.27
2019-04-01T15:14:01.994Z,10.67
2019-04-01T15:17:21.944Z,10.70
2019-04-01T15:19:51.037Z,10.67
2019-04-01T15:22:53.683Z,10.37
2019-04-01T15:25:29.967Z,10.50
2019-04-01T15:28:42.552Z,12.00
2019-04-01T15:31:21.629Z,10.67
2019-04-01T15:34:09.142Z,11.70
2019-04-01T15:36:45.097Z,10.87
2019-04-01T15:39:34.417Z,12.60
2019-04-01T15:42:11.895Z,10.97
2019-04-01T15:59:32.555Z,11.43
2019-04-01T16:02:03.904Z,11.33
2019-04-01T16:04:33.219Z,11.90
2019-04-01T16:07:08.427Z,11.53
2019-04-01T16:09:46.827Z,11.07
2019-04-01T16:12:23.906Z,10.90
2019-04-01T16:14:54.464Z,11.00
2019-04-01T16:17:26.355Z,10.97
2019-04-01T16:19:58.922Z,12.20
2019-04-01T16:22:27.987Z,12.10
2019-04-01T16:24:59.227Z,11.30
2019-04-01T16:27:31.324Z,11.30
2019-04-01T16:30:03.363Z,11.10
2019-04-01T16:32:32.763Z,11.70
2019-04-01T16:35:12.856Z,11.00
2019-04-01T16:37:47.831Z,10.83
2019-04-01T16:40:18.162Z,11.87
2019-04-01T16:42:48.167Z,10.90
2019-04-01T16:45:17.741Z,11.83
2019-04-01T16:47:48.460Z,10.87
2019-04-01T16:50:23.583Z,10.07
2019-04-01T16:52:58.120Z,10.87
2019-04-01T16:55:34.018Z,10.50
2019-04-01T16:58:03.226Z,10.53
2019-04-01T17:00:35.205Z,11.03
2019-04-01T17:03:13.565Z,10.50
2019-04-01T17:05:44.253Z,11.97
2019-04-01T17:08:13.772Z,11.63
2019-04-01T17:10:42.812Z,11.50
2019-04-01T17:13:12.061Z,11.37
2019-04-01T17:15:41.106Z,10.87
2019-04-01T17:18:10.274Z,10.97
2019-04-01T17:20:41.311Z,12.03
2019-04-01T17:23:16.154Z,11.23
2019-04-01T17:25:45.590Z,10.70
2019-04-01T17:28:22.503Z,11.30
2019-04-01T17:31:00.703Z,11.17
2019-04-01T17:33:35.134Z,12.27
2019-04-01T17:36:04.127Z,12.30
2019-04-01T17:38:38.383Z,11.50
2019-04-01T17:41:14.733Z,11.80
2019-04-01T17:43:46.982Z,12.10
2019-04-01T17:46:17.946Z,12.00
2019-04-01T17:48:47.011Z,12.80
2019-04-01T17:51:18.632Z,12.53
2019-04-01T17:54:01.822Z,12.17
2019-04-01T17:56:31.294Z,12.27
2019-04-01T17:59:02.197Z,12.03
2019-04-01T18:01:31.740Z,12.07
2019-04-01T18:04:02.746Z,13.53
2019-04-01T18:06:43.537Z,12.07
2019-04-01T18:09:15.518Z,12.53
2019-04-01T18:11:46.897Z,12.47
2019-04-01T18:14:16.250Z,12.57
2019-04-01T18:16:47.137Z,13.63
2019-04-01T18:19:17.622Z,13.70
2019-04-01T18:21:48.681Z,13.67
2019-04-01T18:24:17.624Z,12.33
2019-04-01T18:26:46.778Z,13.63
2019-04-01T18:29:15.852Z,12.87
2019-04-01T18:31:45.228Z,12.13
2019-04-01T18:34:18.785Z,11.73
2019-04-01T18:36:47.813Z,11.47
2019-04-01T18:39:17.282Z,13.30
2019-04-01T18:41:47.664Z,13.63
2019-04-01T18:44:18.590Z,27.50
2019-04-01T18:46:47.614Z,20.50
2019-04-01T18:49:19.381Z,17.17
2019-04-01T18:51:48.777Z,21.97
2019-04-01T18:54:21.297Z,16.27
2019-04-01T18:56:50.569Z,13.63
2019-04-01T18:59:19.591Z,12.13
2019-04-01T19:01:51.934Z,10.43
2019-04-01T19:04:22.555Z,12.13
2019-04-01T19:06:52.282Z,11.40
2019-04-01T19:09:27.985Z,10.73
2019-04-01T19:12:04.607Z,9.93
2019-04-01T19:14:34.296Z,10.83
2019-04-01T19:17:03.771Z,11.20
2019-04-01T19:19:34.934Z,10.77
2019-04-01T19:22:10.633Z,11.07
2019-04-01T19:24:40.770Z,10.73
2019-04-01T19:27:11.347Z,10.80
2019-04-01T19:29:43.057Z,11.07
2019-04-01T19:32:14.801Z,11.33
2019-04-01T19:34:45.080Z,11.60
2019-04-01T19:37:14.154Z,10.87
2019-04-01T19:39:55.325Z,11.67
2019-04-01T19:42:24.763Z,13.00
2019-04-01T19:45:00.470Z,12.60
2019-04-01T19:47:30.269Z,13.57
2019-04-01T19:50:14.059Z,12.20
2019-04-01T19:52:44.596Z,12.33
2019-04-01T19:55:17.794Z,11.13
2019-04-01T19:57:47.226Z,12.17
2019-04-01T20:00:28.235Z,12.83
2019-04-01T20:02:53.104Z,11.20
2019-04-01T20:05:22.919Z,11.43
2019-04-01T20:07:52.478Z,11.13
2019-04-01T20:10:21.584Z,11.17
2019-04-01T20:12:53.365Z,11.43
2019-04-01T20:15:22.504Z,12.53
2019-04-01T20:17:51.556Z,10.73
2019-04-01T20:20:20.988Z,10.80
2019-04-01T20:22:53.935Z,11.50
2019-04-01T20:25:24.605Z,11.53
2019-04-01T20:27:53.739Z,11.63
2019-04-01T20:30:23.674Z,11.87
2019-04-01T20:32:52.815Z,11.73
2019-04-01T20:35:25.049Z,11.10
2019-04-01T20:37:57.334Z,12.07
2019-04-01T20:40:26.767Z,11.53
2019-04-01T20:42:59.606Z,11.23
2019-04-01T20:45:31.294Z,11.43
2019-04-01T20:48:00.540Z,10.37
2019-04-01T20:50:36.563Z,11.63
2019-04-01T20:53:05.789Z,10.70
2019-04-01T21:02:38.521Z,10.60
2019-04-01T21:05:16.878Z,11.33
2019-04-01T21:08:21.682Z,11.60
2019-04-01T21:10:53.783Z,10.60
2019-04-01T21:14:03.104Z,10.87
2019-04-01T21:16:32.197Z,12.10
2019-04-01T21:19:37.095Z,10.83
2019-04-01T21:22:08.736Z,10.30
2019-04-01T21:25:13.919Z,11.37
2019-04-01T21:27:43.459Z,11.50
2019-04-01T21:37:16.230Z,10.60
2019-04-01T21:39:45.432Z,11.60
2019-04-01T21:42:15.220Z,12.10
2019-04-01T21:45:11.735Z,10.60
2019-04-01T21:47:42.349Z,10.77
2019-04-01T21:50:53.096Z,9.47
2019-04-01T21:53:28.197Z,10.77
2019-04-01T21:56:27.746Z,9.57
2019-04-01T21:58:59.148Z,10.87
2019-04-01T22:02:05.560Z,9.87
2019-04-01T22:04:34.671Z,11.10
2019-04-01T22:07:45.740Z,10.83
2019-04-01T22:10:15.048Z,9.90
2019-04-01T22:19:48.202Z,10.17
2019-04-01T22:22:18.615Z,9.87
2019-04-01T22:24:47.806Z,10.20
2019-04-01T22:28:09.639Z,10.70
2019-04-01T22:30:40.129Z,10.20
2019-04-01T22:33:11.077Z,9.70
2019-04-01T22:40:00.227Z,9.67
2019-04-01T22:42:31.873Z,9.07
2019-04-01T22:45:52.466Z,9.73
2019-04-01T22:48:21.779Z,9.77
2019-04-01T22:50:50.901Z,8.70
2019-04-01T22:53:37.927Z,9.53
2019-04-01T22:56:07.563Z,9.50
2019-04-01T22:59:09.972Z,9.70
2019-04-01T23:01:38.871Z,9.63
2019-04-01T23:05:00.722Z,9.27
2019-04-01T23:07:29.917Z,9.63
2019-04-01T23:09:59.130Z,8.60
2019-04-01T23:13:16.368Z,9.67
2019-04-01T23:15:46.828Z,8.67
2019-04-01T23:18:18.807Z,8.53
2019-04-01T23:20:55.146Z,9.07
2019-04-01T23:23:27.245Z,9.20
2019-04-01T23:26:44.519Z,9.17
2019-04-01T23:29:13.599Z,9.07
2019-04-01T23:31:42.772Z,8.47
2019-04-01T23:34:51.276Z,9.70
2019-04-01T23:37:23.505Z,8.80
2019-04-01T23:39:52.757Z,9.57
2019-04-01T23:42:22.059Z,8.50
2019-04-01T23:44:52.262Z,8.77
2019-04-01T23:47:22.030Z,9.30
2019-04-01T23:49:52.356Z,8.30
2019-04-01T23:52:21.952Z,9.57
2019-04-01T23:54:50.962Z,8.87
2019-04-01T23:57:22.531Z,9.50
2019-04-01T23:59:53.620Z,9.27
